Time;durP1;ratioP1;P1;durP2;ratioP2;P2;SDS_P1;SDS_P2;PMS_P1;PMS_P2;Temp;Humidity;BMP_temperature;BMP_pressure;BME280_temperature;BME280_humidity;BME280_pressure;Samples;Min_cycle;Max_cycle;Signal;HPM_P1;HPM_P2
2022/11/02 00:00:41;;;;;;;24.53;19.93;;;22.00;99.90;;;;;;5030758;28;20459;-38
2022/11/02 00:03:08;;;;;;;26.53;20.43;;;22.00;99.90;;;;;;5028142;28;20461;-43
2022/11/02 00:05:36;;;;;;;22.33;19.40;;;22.00;99.90;;;;;;5029371;28;20458;-38
2022/11/02 00:08:03;;;;;;;25.57;19.27;;;21.90;99.90;;;;;;5031962;28;20977;-39
2022/11/02 00:10:30;;;;;;;25.80;19.23;;;21.90;99.90;;;;;;5032153;28;20482;-38
2022/11/02 00:12:57;;;;;;;24.00;18.53;;;21.90;99.90;;;;;;5029872;28;20459;-38
2022/11/02 00:15:25;;;;;;;30.33;19.97;;;21.90;99.90;;;;;;5030455;28;20821;-40
2022/11/02 00:17:55;;;;;;;27.27;18.70;;;21.90;99.90;;;;;;5037518;28;20478;-40
2022/11/02 00:20:22;;;;;;;26.47;19.80;;;21.90;99.90;;;;;;5033266;28;20834;-40
2022/11/02 00:22:55;;;;;;;21.83;18.17;;;21.80;99.90;;;;;;5035221;28;20462;-38
2022/11/02 00:25:23;;;;;;;23.90;20.23;;;21.80;99.90;;;;;;5031260;28;20974;-36
2022/11/02 00:27:50;;;;;;;23.10;19.33;;;21.80;99.90;;;;;;5027381;28;20470;-40
2022/11/02 00:30:17;;;;;;;23.37;19.10;;;21.80;99.90;;;;;;5033014;28;20474;-40
2022/11/02 00:32:44;;;;;;;21.10;18.30;;;21.80;99.90;;;;;;5030544;28;20442;-38
2022/11/02 00:35:10;;;;;;;24.07;18.73;;;21.70;99.90;;;;;;5040280;28;20456;-40
2022/11/02 00:37:37;;;;;;;23.13;17.83;;;21.70;99.90;;;;;;5041230;28;20958;-38
2022/11/02 00:40:06;;;;;;;22.30;17.73;;;21.70;99.90;;;;;;5040415;28;20457;-38
2022/11/02 00:42:34;;;;;;;21.50;17.67;;;21.70;99.90;;;;;;5036617;28;20466;-38
2022/11/02 00:45:01;;;;;;;21.50;17.43;;;21.70;99.90;;;;;;5036024;28;20529;-38
2022/11/02 00:47:28;;;;;;;21.33;17.23;;;21.70;99.90;;;;;;5040143;28;20457;-39
2022/11/02 00:49:54;;;;;;;24.50;18.93;;;21.70;99.90;;;;;;5030439;28;20481;-38
2022/11/02 00:52:21;;;;;;;21.40;17.13;;;21.70;99.90;;;;;;5031312;28;20466;-41
2022/11/02 00:54:48;;;;;;;23.80;19.00;;;21.70;99.90;;;;;;5031056;28;20959;-37
2022/11/02 00:57:16;;;;;;;23.77;17.40;;;21.70;99.90;;;;;;5029643;28;20454;-37
2022/11/02 00:59:42;;;;;;;21.47;17.97;;;21.70;99.90;;;;;;5033682;28;20464;-38
2022/11/02 01:02:09;;;;;;;22.50;18.03;;;21.70;99.90;;;;;;5030187;28;20516;-40
2022/11/02 01:04:36;;;;;;;20.10;16.67;;;21.70;99.90;;;;;;5029990;28;20466;-38
2022/11/02 01:07:03;;;;;;;20.40;15.93;;;21.70;99.90;;;;;;5028108;28;20562;-39
2022/11/02 01:09:30;;;;;;;22.17;16.07;;;21.70;99.90;;;;;;5033025;28;20485;-42
2022/11/02 01:11:57;;;;;;;20.07;17.93;;;21.70;99.90;;;;;;5043258;28;20457;-38
2022/11/02 01:14:25;;;;;;;17.30;15.10;;;21.70;99.90;;;;;;5041558;28;20464;-37
2022/11/02 01:16:52;;;;;;;20.00;16.70;;;21.70;99.90;;;;;;5028713;28;20478;-38
2022/11/02 01:19:19;;;;;;;17.75;15.85;;;21.70;99.90;;;;;;5041521;28;20466;-37
2022/11/02 01:21:45;;;;;;;21.90;17.50;;;21.70;99.90;;;;;;5033716;28;20214;-41
2022/11/02 01:24:12;;;;;;;18.40;15.37;;;21.70;99.90;;;;;;5027426;28;20469;-38
2022/11/02 01:26:39;;;;;;;20.20;15.80;;;21.70;99.90;;;;;;5028022;28;20465;-37
2022/11/02 01:29:05;;;;;;;22.63;16.20;;;21.70;99.90;;;;;;5029271;28;20861;-38
2022/11/02 01:31:34;;;;;;;23.00;17.77;;;21.60;99.90;;;;;;5026173;28;20466;-37
2022/11/02 01:34:00;;;;;;;23.08;17.25;;;21.60;99.90;;;;;;5031960;28;20461;-36
2022/11/02 01:36:27;;;;;;;19.57;16.90;;;21.60;99.90;;;;;;5033180;28;20199;-38
2022/11/02 01:38:55;;;;;;;18.40;16.27;;;21.60;99.90;;;;;;5035216;28;20814;-38
2022/11/02 01:41:22;;;;;;;18.23;15.10;;;21.60;99.90;;;;;;5032422;28;20462;-40
2022/11/02 01:43:52;;;;;;;19.30;16.57;;;21.60;99.90;;;;;;5035468;28;20481;-38
2022/11/02 01:46:22;;;;;;;17.60;15.70;;;21.60;99.90;;;;;;5033679;28;20466;-36
2022/11/02 01:48:56;;;;;;;20.25;15.57;;;21.60;99.90;;;;;;5043853;28;20971;-38
2022/11/02 01:51:27;;;;;;;22.30;15.47;;;21.60;99.90;;;;;;5044016;28;20203;-38
2022/11/02 01:53:57;;;;;;;19.80;15.20;;;21.60;99.90;;;;;;5036845;28;20457;-36
2022/11/02 01:56:28;;;;;;;19.83;17.00;;;21.50;99.90;;;;;;5041263;28;20472;-39
2022/11/02 01:59:04;;;;;;;16.85;14.63;;;21.50;99.90;;;;;;5033658;28;20867;-41
2022/11/02 02:01:31;;;;;;;16.90;14.10;;;21.50;99.90;;;;;;5033041;28;20196;-38
2022/11/02 02:04:01;;;;;;;21.60;15.52;;;21.50;99.90;;;;;;5033591;28;20450;-35
2022/11/02 02:06:27;;;;;;;18.73;16.07;;;21.50;99.90;;;;;;5032972;28;20566;-41
2022/11/02 02:08:56;;;;;;;18.80;14.82;;;21.50;99.90;;;;;;5040599;28;20472;-39
2022/11/02 02:11:28;;;;;;;19.33;15.20;;;21.40;99.90;;;;;;5036344;28;20219;-37
2022/11/02 02:13:57;;;;;;;15.27;13.63;;;21.40;99.90;;;;;;5036867;28;20461;-38
2022/11/02 02:16:36;;;;;;;16.17;13.53;;;21.40;99.90;;;;;;5034770;28;20220;-38
2022/11/02 02:19:12;;;;;;;16.80;15.20;;;21.40;99.90;;;;;;5037559;28;20966;-37
2022/11/02 02:21:53;;;;;;;18.75;15.00;;;21.40;99.90;;;;;;5033952;28;20453;-38
2022/11/02 02:24:31;;;;;;;15.97;14.20;;;21.40;99.90;;;;;;5043593;28;20654;-38
2022/11/02 02:27:09;;;;;;;18.02;13.88;;;21.40;99.90;;;;;;5038153;28;20457;-34
2022/11/02 02:29:49;;;;;;;15.65;14.05;;;21.40;99.90;;;;;;5029401;28;20222;-38
2022/11/02 02:32:22;;;;;;;14.85;13.25;;;21.30;99.90;;;;;;5030981;28;20203;-40
2022/11/02 02:34:53;;;;;;;16.25;14.60;;;21.30;99.90;;;;;;5031530;28;20843;-39
2022/11/02 02:37:26;;;;;;;14.95;13.38;;;21.30;99.90;;;;;;5035152;28;20677;-43
2022/11/02 02:39:58;;;;;;;19.83;14.70;;;21.30;99.90;;;;;;5034209;28;20207;-38
2022/11/02 02:42:30;;;;;;;18.23;15.90;;;21.30;99.90;;;;;;5030717;28;20468;-38
2022/11/02 02:45:06;;;;;;;17.75;14.25;;;21.30;99.90;;;;;;5039076;28;20465;-37
2022/11/02 02:47:35;;;;;;;13.73;12.43;;;21.20;99.90;;;;;;5044768;28;20195;-38
2022/11/02 02:50:07;;;;;;;17.03;13.27;;;21.20;99.90;;;;;;5037448;28;20472;-38
2022/11/02 02:52:37;;;;;;;15.57;12.97;;;21.20;99.90;;;;;;5041659;28;20458;-43
2022/11/02 02:55:06;;;;;;;17.95;13.60;;;21.20;99.90;;;;;;5037940;28;20513;-42
2022/11/02 02:57:35;;;;;;;19.95;14.43;;;21.20;99.90;;;;;;5036074;28;20274;-40
2022/11/02 03:00:04;;;;;;;17.17;13.88;;;21.10;99.90;;;;;;5038246;28;20192;-36
2022/11/02 03:02:32;;;;;;;16.75;14.45;;;21.10;99.90;;;;;;5032960;28;20215;-37
2022/11/02 03:04:59;;;;;;;14.35;12.32;;;21.10;99.90;;;;;;5040038;28;20195;-38
2022/11/02 03:07:29;;;;;;;17.63;13.68;;;21.10;99.90;;;;;;5044168;28;20209;-39
2022/11/02 03:10:05;;;;;;;16.48;14.68;;;21.10;99.90;;;;;;5037840;28;20579;-41
2022/11/02 03:12:39;;;;;;;16.60;14.02;;;21.10;99.90;;;;;;5032198;28;20198;-40
2022/11/02 03:15:13;;;;;;;14.93;13.32;;;21.00;99.90;;;;;;5032936;28;20655;-40
2022/11/02 03:17:50;;;;;;;13.90;12.15;;;21.00;99.90;;;;;;5034700;28;20219;-40
2022/11/02 03:20:25;;;;;;;14.38;12.07;;;21.00;99.90;;;;;;5035656;28;20195;-38
2022/11/02 03:23:04;;;;;;;14.83;13.13;;;21.00;99.90;;;;;;5030541;28;20210;-37
2022/11/02 03:25:39;;;;;;;15.98;13.00;;;21.00;99.90;;;;;;5033022;28;20457;-37
2022/11/02 03:28:12;;;;;;;13.90;11.95;;;21.00;99.90;;;;;;5030778;28;20547;-37
2022/11/02 03:30:46;;;;;;;15.80;13.07;;;21.00;99.90;;;;;;5029776;28;20235;-35
2022/11/02 03:33:20;;;;;;;14.32;12.77;;;21.00;99.90;;;;;;5030773;28;20255;-37
2022/11/02 03:35:52;;;;;;;13.77;12.23;;;21.00;99.90;;;;;;5038493;28;20681;-36
2022/11/02 03:38:22;;;;;;;13.45;11.10;;;20.90;99.90;;;;;;5048753;28;20465;-40
2022/11/02 03:40:51;;;;;;;13.00;11.70;;;20.90;99.90;;;;;;5031220;28;20670;-38
2022/11/02 03:43:20;;;;;;;15.10;12.60;;;20.90;99.90;;;;;;5040872;28;20524;-40
2022/11/02 03:45:52;;;;;;;13.70;12.20;;;20.90;99.90;;;;;;5034892;28;20458;-37
2022/11/02 03:48:21;;;;;;;17.48;13.00;;;20.90;99.90;;;;;;5033578;28;20647;-35
2022/11/02 03:50:50;;;;;;;15.63;13.07;;;20.90;99.90;;;;;;5030425;28;20222;-38
2022/11/02 03:53:22;;;;;;;14.80;13.25;;;20.90;99.90;;;;;;5035932;28;20594;-38
2022/11/02 03:55:53;;;;;;;15.77;12.75;;;20.80;99.90;;;;;;5030716;28;20203;-37
2022/11/02 03:58:20;;;;;;;15.50;12.23;;;20.80;99.90;;;;;;5042638;28;20195;-39
2022/11/02 04:00:52;;;;;;;13.63;12.23;;;20.90;99.90;;;;;;5041303;28;20662;-37
2022/11/02 04:03:21;;;;;;;13.55;10.85;;;20.80;99.90;;;;;;5040357;28;20202;-38
2022/11/02 04:05:48;;;;;;;15.85;11.70;;;20.80;99.90;;;;;;5041052;28;20274;-36
2022/11/02 04:08:23;;;;;;;16.80;13.13;;;20.80;99.90;;;;;;5042414;28;20536;-36
2022/11/02 04:16:25;;;;;;;12.57;11.23;;;20.70;99.90;;;;;;5030772;28;20303;-34
2022/11/02 04:21:36;;;;;;;17.98;12.25;;;20.70;99.90;;;;;;5040394;28;20665;-38
2022/11/02 04:26:48;;;;;;;13.10;11.20;;;20.70;99.90;;;;;;5030834;28;20621;-35
2022/11/02 04:29:14;;;;;;;12.23;10.20;;;20.70;99.90;;;;;;5033494;28;20402;-40
2022/11/02 04:31:42;;;;;;;13.23;11.13;;;20.70;99.90;;;;;;5030306;28;20220;-36
2022/11/02 04:34:08;;;;;;;12.98;11.77;;;20.70;99.90;;;;;;5038190;28;20199;-37
2022/11/02 04:36:35;;;;;;;12.70;11.40;;;20.70;99.90;;;;;;5039741;28;20203;-40
2022/11/02 04:39:01;;;;;;;14.02;11.57;;;20.70;99.90;;;;;;5036291;28;20196;-40
2022/11/02 04:41:42;;;;;;;12.07;10.20;;;20.60;99.90;;;;;;5043491;28;20221;-42
2022/11/02 04:44:10;;;;;;;11.98;10.73;;;20.60;99.90;;;;;;5032257;28;20210;-38
2022/11/02 04:46:38;;;;;;;11.40;10.25;;;20.80;99.90;;;;;;5033505;28;20203;-40
2022/11/02 04:49:07;;;;;;;12.73;11.43;;;21.20;99.90;;;;;;5032625;28;20195;-36
2022/11/02 04:51:35;;;;;;;11.13;9.17;;;21.40;99.90;;;;;;5029563;28;20813;-36
2022/11/02 04:54:02;;;;;;;13.38;11.23;;;21.60;99.90;;;;;;5032814;28;20458;-42
2022/11/02 04:56:29;;;;;;;11.50;10.30;;;21.80;99.90;;;;;;5028609;28;20209;-34
2022/11/02 04:58:58;;;;;;;12.83;10.20;;;21.80;99.90;;;;;;5028395;28;20968;-34
2022/11/02 05:01:26;;;;;;;12.73;10.70;;;21.90;99.90;;;;;;5029748;28;20469;-40
2022/11/02 05:03:54;;;;;;;10.27;9.07;;;22.00;99.90;;;;;;5027329;28;20532;-39
2022/11/02 05:06:24;;;;;;;10.53;8.97;;;22.00;99.90;;;;;;5032586;28;20454;-35
2022/11/02 05:08:50;;;;;;;10.57;9.47;;;22.10;99.90;;;;;;5032403;28;20824;-37
2022/11/02 05:11:17;;;;;;;11.50;9.77;;;22.10;99.90;;;;;;5034844;28;20473;-36
2022/11/02 05:13:44;;;;;;;11.83;10.63;;;22.10;99.90;;;;;;5033240;28;20467;-37
2022/11/02 05:16:12;;;;;;;11.87;10.13;;;22.00;99.90;;;;;;5040740;28;20482;-38
2022/11/02 05:18:39;;;;;;;12.03;9.37;;;22.00;99.90;;;;;;5034378;28;20466;-39
2022/11/02 05:21:06;;;;;;;10.13;9.23;;;22.00;99.90;;;;;;5038618;28;20481;-39
2022/11/02 05:23:34;;;;;;;11.60;10.50;;;21.90;99.90;;;;;;5034995;28;20872;-34
2022/11/02 05:26:03;;;;;;;9.60;8.60;;;21.90;99.90;;;;;;5033491;28;20465;-38
2022/11/02 05:28:31;;;;;;;11.37;9.37;;;21.90;99.90;;;;;;5042425;28;21103;-35
2022/11/02 05:30:59;;;;;;;11.07;9.57;;;21.90;99.90;;;;;;5034390;28;20489;-37
2022/11/02 05:33:27;;;;;;;10.47;9.10;;;21.90;99.90;;;;;;5035465;28;20462;-37
2022/11/02 05:35:54;;;;;;;11.87;10.00;;;21.80;99.90;;;;;;5041058;28;20454;-37
2022/11/02 05:38:21;;;;;;;10.30;9.20;;;21.80;99.90;;;;;;5035662;28;20961;-37
2022/11/02 05:40:53;;;;;;;10.33;8.63;;;21.80;99.90;;;;;;5036928;28;20470;-37
2022/11/02 05:43:19;;;;;;;9.33;8.40;;;21.80;99.90;;;;;;5040986;28;20461;-37
2022/11/02 05:45:53;;;;;;;9.80;8.80;;;21.80;99.90;;;;;;5034269;28;20477;-40
2022/11/02 05:48:20;;;;;;;9.73;8.73;;;21.80;99.90;;;;;;5034322;28;20430;-34
2022/11/02 05:50:47;;;;;;;11.63;9.40;;;21.80;99.90;;;;;;5037088;28;20497;-38
2022/11/02 05:53:13;;;;;;;8.87;8.07;;;21.80;99.90;;;;;;5034773;28;20462;-40
2022/11/02 05:55:40;;;;;;;9.10;8.17;;;21.70;99.90;;;;;;5037976;28;20972;-40
2022/11/02 05:58:08;;;;;;;10.13;8.43;;;21.70;99.90;;;;;;5031294;28;20453;-41
2022/11/02 06:00:35;;;;;;;8.40;7.60;;;21.70;99.90;;;;;;5034666;28;20458;-40
2022/11/02 06:03:01;;;;;;;10.13;8.00;;;21.70;99.90;;;;;;5033698;28;20458;-36
2022/11/02 06:05:28;;;;;;;10.23;8.77;;;21.70;99.90;;;;;;5035358;28;20477;-37
2022/11/02 06:07:58;;;;;;;9.67;8.00;;;21.70;99.90;;;;;;5050218;28;20460;-38
2022/11/02 06:10:25;;;;;;;10.30;8.83;;;21.70;99.90;;;;;;5040367;28;20576;-37
2022/11/02 06:12:55;;;;;;;9.60;7.80;;;21.70;99.90;;;;;;5033171;28;20465;-37
2022/11/02 06:15:23;;;;;;;8.67;7.80;;;21.70;99.90;;;;;;5041640;28;20468;-38
2022/11/02 06:17:51;;;;;;;9.13;8.20;;;21.80;99.90;;;;;;5032285;28;22284;-39
2022/11/02 06:20:18;;;;;;;8.27;7.00;;;21.80;99.90;;;;;;5033089;28;20454;-39
2022/11/02 06:22:45;;;;;;;8.67;7.70;;;21.80;99.90;;;;;;5039861;28;20971;-40
2022/11/02 06:25:12;;;;;;;8.87;7.87;;;21.80;99.90;;;;;;5037011;28;20450;-36
2022/11/02 06:27:40;;;;;;;8.23;7.13;;;21.80;99.90;;;;;;5039962;28;20454;-37
2022/11/02 06:30:08;;;;;;;9.23;8.23;;;21.80;99.90;;;;;;5029494;28;20468;-42
2022/11/02 06:32:36;;;;;;;8.23;7.30;;;21.80;99.90;;;;;;5035432;28;20497;-39
2022/11/02 06:35:03;;;;;;;8.90;8.00;;;21.80;99.90;;;;;;5037330;28;20863;-40
2022/11/02 06:37:33;;;;;;;11.67;8.30;;;21.80;99.90;;;;;;5045312;28;20457;-37
2022/11/02 06:40:00;;;;;;;8.20;6.80;;;21.80;99.90;;;;;;5031729;28;20473;-40
2022/11/02 06:42:27;;;;;;;8.70;7.83;;;21.80;99.90;;;;;;5032676;28;20461;-36
2022/11/02 06:44:54;;;;;;;8.13;7.13;;;21.80;99.90;;;;;;5040226;28;20446;-38
2022/11/02 06:47:20;;;;;;;12.43;8.20;;;21.90;99.90;;;;;;5034113;28;20462;-37
2022/11/02 06:49:48;;;;;;;8.37;7.53;;;21.90;99.90;;;;;;5036968;28;20592;-36
2022/11/02 06:52:15;;;;;;;8.10;7.30;;;21.90;99.90;;;;;;5032110;28;20660;-38
2022/11/02 06:54:42;;;;;;;7.70;7.00;;;21.90;99.90;;;;;;5034761;28;20462;-37
2022/11/02 06:57:09;;;;;;;10.00;9.10;;;21.90;99.90;;;;;;5035739;28;20450;-38
2022/11/02 06:59:36;;;;;;;7.73;7.03;;;21.90;99.90;;;;;;5033142;28;20453;-37
2022/11/02 07:02:02;;;;;;;8.10;7.23;;;21.90;99.90;;;;;;5030741;28;20466;-34
2022/11/02 07:04:29;;;;;;;8.30;7.30;;;21.90;99.90;;;;;;5039335;28;20465;-33
2022/11/02 07:06:57;;;;;;;8.20;7.30;;;21.90;99.90;;;;;;5042244;28;20453;-42
2022/11/02 07:09:24;;;;;;;7.77;6.57;;;21.90;99.90;;;;;;5038102;28;20483;-37
2022/11/02 07:11:51;;;;;;;7.33;6.67;;;21.90;99.90;;;;;;5044888;28;20473;-35
2022/11/02 07:14:18;;;;;;;7.90;6.83;;;22.00;99.90;;;;;;5035890;28;20828;-33
2022/11/02 07:16:44;;;;;;;7.40;6.70;;;22.00;99.90;;;;;;5032963;28;20509;-34
2022/11/02 07:19:11;;;;;;;7.37;6.60;;;22.00;99.90;;;;;;5037775;28;20453;-35
2022/11/02 07:21:38;;;;;;;7.67;6.67;;;22.00;99.90;;;;;;5040614;28;20834;-33
2022/11/02 07:24:06;;;;;;;7.97;6.43;;;22.00;99.90;;;;;;5035547;28;20459;-35
2022/11/02 07:26:33;;;;;;;9.10;6.73;;;22.00;99.90;;;;;;5034108;28;20462;-33
2022/11/02 07:29:00;;;;;;;9.33;7.00;;;22.10;99.90;;;;;;5035315;28;20782;-34
2022/11/02 07:31:26;;;;;;;10.00;7.00;;;22.00;99.90;;;;;;5039213;28;20473;-34
2022/11/02 07:33:53;;;;;;;7.10;6.40;;;22.00;99.90;;;;;;5036171;28;20443;-35
2022/11/02 07:36:20;;;;;;;9.30;6.40;;;22.10;99.90;;;;;;5045015;28;20861;-36
2022/11/02 07:38:46;;;;;;;6.97;6.27;;;22.10;99.90;;;;;;5044893;28;20485;-38
2022/11/02 07:41:14;;;;;;;10.07;5.87;;;22.10;99.90;;;;;;5043867;28;20470;-34
2022/11/02 07:43:41;;;;;;;7.83;6.80;;;22.10;99.90;;;;;;5043101;28;20460;-34
2022/11/02 07:46:08;;;;;;;7.20;6.50;;;22.10;99.90;;;;;;5033055;28;20462;-34
2022/11/02 07:48:35;;;;;;;6.97;6.30;;;22.10;99.90;;;;;;5043171;28;20457;-33
2022/11/02 07:51:02;;;;;;;7.10;6.07;;;22.10;99.90;;;;;;5032470;28;20532;-34
2022/11/02 07:53:29;;;;;;;6.83;6.20;;;22.10;99.90;;;;;;5041677;28;20540;-38
2022/11/02 07:55:55;;;;;;;6.83;5.80;;;22.10;99.90;;;;;;5040007;28;20458;-34
2022/11/02 07:58:23;;;;;;;8.40;6.60;;;22.20;99.90;;;;;;5044231;28;20814;-35
2022/11/02 08:00:50;;;;;;;7.00;6.30;;;22.20;99.90;;;;;;5034895;28;20471;-34
2022/11/02 08:03:17;;;;;;;6.20;5.57;;;22.10;99.90;;;;;;5042970;28;20568;-37
2022/11/02 08:05:43;;;;;;;7.33;6.17;;;22.20;99.90;;;;;;5033822;28;20438;-35
2022/11/02 08:08:15;;;;;;;6.90;6.20;;;22.20;99.90;;;;;;5041115;28;20465;-35
2022/11/02 08:10:42;;;;;;;6.47;5.53;;;22.20;99.90;;;;;;5037775;28;20461;-39
2022/11/02 08:13:10;;;;;;;5.77;5.27;;;22.20;99.90;;;;;;5039837;28;20448;-36
2022/11/02 08:15:39;;;;;;;12.20;5.43;;;22.20;99.90;;;;;;5039136;28;20838;-36
2022/11/02 08:18:07;;;;;;;7.30;5.97;;;22.20;99.90;;;;;;5037812;28;20462;-38
2022/11/02 08:20:35;;;;;;;6.00;5.10;;;22.20;99.90;;;;;;5040109;28;20803;-37
2022/11/02 08:23:02;;;;;;;6.57;5.20;;;22.20;99.90;;;;;;5038759;28;21018;-38
2022/11/02 08:25:28;;;;;;;6.23;5.37;;;22.20;99.90;;;;;;5042502;28;20462;-38
2022/11/02 08:27:57;;;;;;;6.60;5.50;;;22.30;99.90;;;;;;5041307;28;20948;-36
2022/11/02 08:30:24;;;;;;;8.23;6.10;;;22.20;99.90;;;;;;5033562;28;21039;-35
2022/11/02 08:32:52;;;;;;;6.23;4.87;;;22.30;99.90;;;;;;5036812;28;20478;-35
2022/11/02 08:35:19;;;;;;;6.97;6.30;;;22.20;99.90;;;;;;5034050;28;20431;-34
2022/11/02 08:37:52;;;;;;;7.60;6.33;;;22.20;99.90;;;;;;5037865;28;20468;-38
2022/11/02 08:40:19;;;;;;;5.40;4.87;;;22.20;99.90;;;;;;5031114;28;20974;-37
2022/11/02 08:42:45;;;;;;;5.83;5.23;;;22.20;99.90;;;;;;5029581;28;20896;-35
2022/11/02 08:45:12;;;;;;;7.73;5.40;;;22.30;99.90;;;;;;5034780;28;20470;-37
2022/11/02 08:47:40;;;;;;;5.20;4.70;;;22.20;99.90;;;;;;5032561;28;20466;-35
2022/11/02 08:50:09;;;;;;;5.40;4.90;;;22.30;99.90;;;;;;5039007;28;20960;-35
2022/11/02 08:52:37;;;;;;;5.00;4.50;;;22.30;99.90;;;;;;5033940;28;20537;-35
2022/11/02 08:55:04;;;;;;;5.80;5.20;;;22.30;99.90;;;;;;5031306;28;21068;-37
2022/11/02 08:57:31;;;;;;;5.77;4.27;;;22.30;99.90;;;;;;5038928;28;20468;-35
2022/11/02 08:59:58;;;;;;;5.23;4.70;;;22.30;99.90;;;;;;5043605;28;20486;-39
2022/11/02 09:02:25;;;;;;;5.03;4.50;;;22.30;99.90;;;;;;5031341;28;20454;-36
2022/11/02 09:04:51;;;;;;;5.63;5.10;;;22.30;99.90;;;;;;5035774;28;20458;-34
2022/11/02 09:07:19;;;;;;;5.30;4.60;;;22.30;99.90;;;;;;5031419;28;20447;-38
2022/11/02 09:09:46;;;;;;;5.47;4.97;;;22.30;99.90;;;;;;5035388;28;20478;-37
2022/11/02 09:12:13;;;;;;;5.53;4.90;;;22.40;99.90;;;;;;5038888;28;20678;-37
2022/11/02 09:14:39;;;;;;;5.23;4.20;;;22.40;99.90;;;;;;5043971;28;20462;-37
2022/11/02 09:17:06;;;;;;;6.20;5.00;;;22.50;99.90;;;;;;5045878;28;20457;-37
2022/11/02 09:19:33;;;;;;;4.57;3.60;;;22.50;99.90;;;;;;5049401;28;20833;-37
2022/11/02 09:21:59;;;;;;;6.23;5.17;;;22.50;99.90;;;;;;5035100;28;20470;-38
2022/11/02 09:24:27;;;;;;;5.40;4.90;;;22.50;99.90;;;;;;5032230;28;21066;-35
2022/11/02 09:26:54;;;;;;;5.43;4.83;;;22.60;99.90;;;;;;5029817;28;20812;-36
2022/11/02 09:29:21;;;;;;;6.80;5.70;;;22.60;99.90;;;;;;5036339;28;20465;-35
2022/11/02 09:31:48;;;;;;;6.27;5.07;;;22.60;99.90;;;;;;5033802;28;20997;-34
2022/11/02 09:34:15;;;;;;;6.50;5.77;;;22.60;99.90;;;;;;5035617;28;20508;-38
2022/11/02 09:36:41;;;;;;;6.70;6.00;;;22.60;99.90;;;;;;5032206;28;20462;-37
2022/11/02 09:39:09;;;;;;;6.70;6.07;;;22.60;99.90;;;;;;5036794;28;20449;-34
2022/11/02 09:41:43;;;;;;;7.03;5.80;;;22.70;99.90;;;;;;5034931;28;20490;-34
2022/11/02 09:44:16;;;;;;;7.60;6.77;;;22.70;99.90;;;;;;5032484;28;20479;-34
2022/11/02 09:46:46;;;;;;;6.43;5.80;;;22.70;99.90;;;;;;5039542;28;20453;-36
2022/11/02 09:49:16;;;;;;;7.10;6.40;;;22.60;99.90;;;;;;5046706;28;20442;-37
2022/11/02 09:51:46;;;;;;;8.97;6.30;;;22.60;99.90;;;;;;5032726;28;20494;-36
2022/11/02 09:54:18;;;;;;;5.80;5.30;;;22.60;99.90;;;;;;5048364;28;20464;-35
2022/11/02 09:56:47;;;;;;;7.00;5.40;;;22.60;99.90;;;;;;5042506;28;20945;-34
2022/11/02 09:59:15;;;;;;;6.03;5.53;;;22.60;99.90;;;;;;5033956;28;20468;-37
2022/11/02 10:01:58;;;;;;;6.57;5.97;;;22.60;99.90;;;;;;5036479;28;20470;-36
2022/11/02 10:05:18;;;;;;;11.70;7.20;;;22.50;99.90;;;;;;5038800;28;20457;-34
2022/11/02 10:08:07;;;;;;;9.67;6.20;;;22.60;99.90;;;;;;4954370;28;20458;-44
2022/11/02 10:10:38;;;;;;;7.80;5.60;;;22.60;99.90;;;;;;4955545;28;20458;-40
2022/11/02 10:13:21;;;;;;;6.57;5.83;;;22.60;99.90;;;;;;5019739;28;20486;-44
2022/11/02 10:15:52;;;;;;;7.03;6.33;;;22.60;99.90;;;;;;5039408;28;20462;-45
2022/11/02 10:18:23;;;;;;;7.10;6.40;;;22.60;99.90;;;;;;5040136;28;20822;-43
2022/11/02 10:20:53;;;;;;;5.73;5.23;;;22.70;99.90;;;;;;5038856;28;20820;-40
2022/11/02 10:23:25;;;;;;;7.93;6.50;;;22.70;99.90;;;;;;5036074;28;20458;-41
2022/11/02 10:25:52;;;;;;;7.20;5.73;;;22.70;99.90;;;;;;5045130;28;20441;-43
2022/11/02 10:28:26;;;;;;;7.00;6.10;;;22.70;99.90;;;;;;5035759;28;20459;-38
2022/11/02 10:30:54;;;;;;;6.07;5.57;;;22.80;99.90;;;;;;5034521;28;20461;-41
2022/11/02 10:33:26;;;;;;;5.40;4.90;;;22.80;99.90;;;;;;5039103;28;20575;-37
2022/11/02 10:36:09;;;;;;;8.17;6.00;;;22.80;99.90;;;;;;5036971;28;20453;-43
2022/11/02 10:38:48;;;;;;;8.27;5.70;;;22.80;99.90;;;;;;5043266;28;20465;-40
2022/11/02 10:41:31;;;;;;;5.73;5.13;;;22.80;99.90;;;;;;5036127;28;21003;-41
2022/11/02 10:44:24;;;;;;;8.07;5.90;;;22.80;99.90;;;;;;5036730;28;20464;-41
2022/11/02 10:47:03;;;;;;;6.60;5.90;;;22.80;99.90;;;;;;5034528;28;20829;-41
2022/11/02 10:49:51;;;;;;;5.90;5.33;;;22.80;99.90;;;;;;5035315;28;20533;-43
2022/11/02 10:52:18;;;;;;;5.80;5.13;;;22.80;99.90;;;;;;5039261;28;20484;-41
2022/11/02 10:54:45;;;;;;;5.90;5.30;;;22.80;99.90;;;;;;5042579;28;20458;-41
2022/11/02 10:57:20;;;;;;;5.50;5.00;;;22.80;99.90;;;;;;5034068;28;21234;-43
2022/11/02 11:00:22;;;;;;;5.30;4.80;;;22.90;99.90;;;;;;5043397;28;20480;-42
2022/11/02 11:03:02;;;;;;;5.83;5.20;;;22.90;99.90;;;;;;5050383;28;20441;-41
2022/11/02 11:05:29;;;;;;;5.60;4.80;;;22.90;99.90;;;;;;5033536;28;20453;-42
2022/11/02 11:07:56;;;;;;;7.90;5.50;;;22.90;99.90;;;;;;5042041;28;20818;-41
2022/11/02 11:10:24;;;;;;;5.70;4.57;;;22.90;99.90;;;;;;5045149;28;20468;-41
2022/11/02 11:12:51;;;;;;;5.67;4.83;;;22.90;99.90;;;;;;5038426;28;20474;-39
2022/11/02 11:15:23;;;;;;;5.77;4.70;;;22.90;99.90;;;;;;5045360;28;20480;-41
2022/11/02 11:17:51;;;;;;;5.13;4.67;;;22.90;99.90;;;;;;5044484;28;20457;-41
2022/11/02 11:20:39;;;;;;;4.30;3.73;;;22.90;99.90;;;;;;5037578;28;20458;-40
2022/11/02 11:23:24;;;;;;;11.80;4.50;;;22.90;99.90;;;;;;5039483;28;20473;-41
2022/11/02 11:25:59;;;;;;;8.33;4.07;;;22.80;99.90;;;;;;5039980;28;20461;-39
2022/11/02 11:28:32;;;;;;;4.60;4.07;;;22.80;99.90;;;;;;5031628;28;20464;-37
2022/11/02 11:31:10;;;;;;;5.60;3.90;;;22.80;99.90;;;;;;5039136;28;20465;-38
2022/11/02 11:33:46;;;;;;;6.17;4.47;;;22.80;99.90;;;;;;5038781;28;20477;-37
2022/11/02 11:36:23;;;;;;;8.73;4.40;;;22.80;99.90;;;;;;5043203;28;20472;-42
2022/11/02 11:38:52;;;;;;;5.17;4.00;;;22.80;99.90;;;;;;5033914;28;20873;-38
2022/11/02 11:41:19;;;;;;;4.57;4.17;;;22.70;99.90;;;;;;5035235;28;20454;-38
2022/11/02 11:43:48;;;;;;;5.73;4.00;;;22.70;99.90;;;;;;5043689;28;20431;-41
2022/11/02 11:46:17;;;;;;;8.83;4.57;;;22.70;99.90;;;;;;5038725;28;20459;-36
2022/11/02 11:48:47;;;;;;;8.47;4.20;;;22.70;99.90;;;;;;5036834;28;20468;-36
2022/11/02 11:51:30;;;;;;;6.67;4.30;;;22.70;99.90;;;;;;5041187;28;20446;-38
2022/11/02 11:54:21;;;;;;;4.77;4.10;;;22.70;99.90;;;;;;5031236;28;20588;-38
2022/11/02 11:56:49;;;;;;;5.47;4.20;;;22.70;99.90;;;;;;5029709;28;20462;-37
2022/11/02 11:59:20;;;;;;;6.97;4.93;;;22.70;99.90;;;;;;5038481;28;20456;-37
2022/11/02 12:01:50;;;;;;;5.53;4.53;;;22.70;99.90;;;;;;5037108;28;20498;-38
2022/11/02 12:04:27;;;;;;;11.70;4.33;;;22.70;99.90;;;;;;5032703;28;20481;-35
2022/11/02 12:07:04;;;;;;;6.50;5.20;;;22.70;99.90;;;;;;5038823;28;20438;-34
2022/11/02 12:09:37;;;;;;;10.10;4.57;;;22.80;99.90;;;;;;5032768;28;20469;-38
2022/11/02 12:12:16;;;;;;;7.17;3.97;;;22.80;99.90;;;;;;5029342;28;20969;-34
2022/11/02 12:14:52;;;;;;;14.97;4.47;;;22.80;99.90;;;;;;5038335;28;20454;-34
2022/11/02 12:17:40;;;;;;;7.20;4.30;;;22.80;99.90;;;;;;5030367;28;20692;-34
2022/11/02 12:20:32;;;;;;;6.60;5.63;;;22.80;99.90;;;;;;5035834;28;20454;-34
2022/11/02 12:23:08;;;;;;;5.80;3.77;;;22.80;99.90;;;;;;5037217;28;20840;-36
2022/11/02 12:25:50;;;;;;;6.70;5.17;;;22.80;99.90;;;;;;5033777;28;20462;-35
2022/11/02 12:28:28;;;;;;;5.20;4.10;;;22.80;99.90;;;;;;5027827;28;20949;-42
2022/11/02 12:31:05;;;;;;;5.23;4.40;;;22.80;99.90;;;;;;5033925;28;20869;-40
2022/11/02 12:33:46;;;;;;;7.10;4.60;;;22.70;99.90;;;;;;5039707;28;20473;-39
2022/11/02 12:36:28;;;;;;;5.73;4.13;;;22.70;99.90;;;;;;5042669;28;20484;-42
2022/11/02 12:39:07;;;;;;;7.20;5.30;;;22.70;99.90;;;;;;5036343;28;20458;-39
2022/11/02 12:41:52;;;;;;;9.40;3.50;;;22.70;99.90;;;;;;5035771;28;20441;-38
2022/11/02 12:44:36;;;;;;;4.20;3.20;;;22.70;99.90;;;;;;5036895;28;20469;-36
2022/11/02 12:47:13;;;;;;;6.40;3.57;;;22.60;99.90;;;;;;5034426;28;20484;-42
2022/11/02 12:49:51;;;;;;;4.50;3.30;;;22.60;99.90;;;;;;5037370;28;20532;-42
2022/11/02 12:52:29;;;;;;;5.80;3.50;;;22.60;99.90;;;;;;5048648;28;20466;-35
2022/11/02 12:54:58;;;;;;;5.73;3.00;;;22.70;99.90;;;;;;5035965;28;20640;-41
2022/11/02 12:57:29;;;;;;;7.40;3.50;;;22.60;99.50;;;;;;5032647;28;20470;-37
2022/11/02 13:00:01;;;;;;;7.90;3.70;;;22.60;97.90;;;;;;5040251;28;20500;-38
2022/11/02 13:02:33;;;;;;;2.93;2.63;;;22.60;97.40;;;;;;5038878;28;20447;-43
2022/11/02 13:05:07;;;;;;;3.87;2.60;;;22.60;98.20;;;;;;5034200;28;20464;-41